Time;durP1;ratioP1;P1;durP2;ratioP2;P2;SDS_P1;SDS_P2;PMS_P1;PMS_P2;Temp;Humidity;BMP_temperature;BMP_pressure;BME280_temperature;BME280_humidity;BME280_pressure;Samples;Min_cycle;Max_cycle;Signal;HPM_P1;HPM_P2
2022/06/15 00:00:29;;;;;;;2.87;1.12;;;14.00;99.90;;;;;;4304068;33;20080;-67
2022/06/15 00:02:54;;;;;;;0.32;0.32;;;14.00;99.90;;;;;;4300907;33;20068;-67
2022/06/15 00:05:20;;;;;;;0.30;0.30;;;13.90;99.90;;;;;;4302979;33;20072;-67
2022/06/15 00:07:45;;;;;;;0.40;0.40;;;13.80;99.90;;;;;;4299738;33;20186;-67
2022/06/15 00:10:11;;;;;;;4.87;2.05;;;13.70;99.90;;;;;;4301423;33;20094;-67
2022/06/15 00:12:37;;;;;;;0.55;0.55;;;13.70;99.90;;;;;;4303681;33;20079;-67
2022/06/15 00:15:04;;;;;;;0.65;0.65;;;13.80;99.90;;;;;;4298972;33;20060;-67
2022/06/15 00:17:30;;;;;;;1.30;0.80;;;13.80;99.90;;;;;;4300996;33;20129;-67
2022/06/15 00:19:56;;;;;;;0.40;0.40;;;13.80;99.90;;;;;;4304007;33;20052;-67
2022/06/15 00:22:21;;;;;;;0.40;0.40;;;13.60;99.90;;;;;;4278129;33;20128;-67
2022/06/15 00:24:47;;;;;;;0.47;0.47;;;13.60;99.90;;;;;;4304678;33;20417;-67
2022/06/15 00:27:13;;;;;;;0.45;0.43;;;13.50;99.90;;;;;;4304893;33;20089;-67
2022/06/15 00:29:38;;;;;;;0.50;0.50;;;13.60;99.90;;;;;;4304020;33;20480;-67
2022/06/15 00:32:06;;;;;;;0.47;0.47;;;13.60;99.90;;;;;;4301854;33;20083;-67
2022/06/15 00:34:32;;;;;;;0.50;0.50;;;13.70;99.90;;;;;;4303588;33;20100;-67
2022/06/15 00:36:57;;;;;;;0.45;0.45;;;13.70;99.90;;;;;;4302806;33;20171;-67
2022/06/15 00:39:23;;;;;;;0.40;0.40;;;13.70;99.90;;;;;;4301513;33;20111;-67
2022/06/15 00:41:48;;;;;;;0.25;0.25;;;13.60;99.90;;;;;;4302570;33;20088;-67
2022/06/15 00:44:20;;;;;;;0.60;0.60;;;13.60;99.90;;;;;;4302993;33;20064;-67
2022/06/15 00:46:49;;;;;;;1.08;0.65;;;13.40;99.90;;;;;;4300621;33;20108;-67
2022/06/15 00:49:34;;;;;;;0.40;0.40;;;13.40;99.90;;;;;;4301799;33;20099;-67
2022/06/15 00:52:07;;;;;;;0.43;0.43;;;13.40;99.90;;;;;;4281319;33;20088;-67
2022/06/15 00:54:33;;;;;;;0.80;0.65;;;13.30;99.90;;;;;;4303120;33;20081;-67
2022/06/15 00:57:02;;;;;;;1.62;0.52;;;13.30;99.90;;;;;;4303510;33;20076;-67
2022/06/15 00:59:34;;;;;;;0.75;0.68;;;13.20;99.90;;;;;;4302368;33;20063;-67
2022/06/15 01:01:59;;;;;;;1.15;0.95;;;13.20;99.90;;;;;;4300913;33;20063;-67
2022/06/15 01:04:30;;;;;;;0.40;0.40;;;13.30;99.90;;;;;;4304024;33;20414;-67
2022/06/15 01:07:25;;;;;;;0.40;0.40;;;13.30;99.90;;;;;;4305010;33;20119;-67
2022/06/15 01:10:01;;;;;;;0.57;0.57;;;13.30;99.90;;;;;;4301606;33;20129;-67
2022/06/15 01:12:38;;;;;;;0.45;0.45;;;13.10;99.90;;;;;;4302932;33;20079;-67
2022/06/15 01:15:30;;;;;;;0.43;0.43;;;13.00;99.90;;;;;;4301683;33;20064;-67
2022/06/15 01:18:10;;;;;;;2.80;1.12;;;13.10;99.90;;;;;;4299062;33;20093;-67
2022/06/15 01:21:04;;;;;;;0.28;0.28;;;13.20;99.90;;;;;;4297555;33;20056;-67
2022/06/15 01:23:55;;;;;;;3.25;0.95;;;13.00;99.90;;;;;;4288492;33;20079;-67
2022/06/15 01:26:53;;;;;;;0.43;0.43;;;12.80;99.90;;;;;;4303519;33;20144;-67
2022/06/15 01:29:41;;;;;;;1.25;1.15;;;12.90;99.90;;;;;;4300356;33;20516;-67
2022/06/15 01:32:17;;;;;;;0.45;0.45;;;12.90;99.90;;;;;;4299706;33;84896;-67
2022/06/15 01:34:52;;;;;;;0.40;0.40;;;12.90;99.90;;;;;;4303621;33;20080;-67
2022/06/15 01:37:41;;;;;;;0.52;0.52;;;12.90;99.90;;;;;;4305764;33;20490;-67
2022/06/15 01:40:16;;;;;;;1.20;1.10;;;13.00;99.90;;;;;;4304456;33;20126;-67
2022/06/15 01:42:48;;;;;;;0.40;0.37;;;13.10;99.90;;;;;;4301473;33;20133;-67
2022/06/15 01:45:18;;;;;;;2.87;1.42;;;13.10;99.90;;;;;;4303100;33;20100;-67
2022/06/15 01:47:45;;;;;;;0.50;0.50;;;13.00;99.90;;;;;;4302962;33;20571;-67
2022/06/15 01:50:18;;;;;;;0.82;0.60;;;12.90;99.90;;;;;;4300955;33;20096;-67
2022/06/15 01:52:50;;;;;;;0.45;0.45;;;12.80;99.90;;;;;;4283534;33;20060;-67
2022/06/15 01:55:30;;;;;;;0.43;0.43;;;12.70;99.90;;;;;;4302786;33;20512;-67
2022/06/15 01:58:00;;;;;;;0.65;0.65;;;12.70;99.90;;;;;;4303528;33;20533;-67
2022/06/15 02:00:26;;;;;;;0.43;0.43;;;12.60;99.90;;;;;;4303320;33;20092;-67
2022/06/15 02:03:17;;;;;;;0.50;0.50;;;12.70;99.90;;;;;;4302236;33;20167;-67
2022/06/15 02:06:02;;;;;;;;;;;12.70;99.90;;;;;;4305333;33;20150;-67
2022/06/15 02:08:41;;;;;;;0.40;0.40;;;12.80;99.90;;;;;;4300363;33;20022;-67
2022/06/15 02:11:14;;;;;;;0.30;0.30;;;12.70;99.90;;;;;;4302621;33;20099;-67
2022/06/15 02:14:01;;;;;;;0.40;0.40;;;12.60;99.90;;;;;;4304044;33;20091;-67
2022/06/15 02:16:31;;;;;;;0.50;0.50;;;12.50;99.90;;;;;;4301814;33;20080;-67
2022/06/15 02:19:00;;;;;;;0.32;0.32;;;12.40;99.90;;;;;;4303066;33;20212;-67
2022/06/15 02:21:27;;;;;;;0.50;0.50;;;12.40;99.90;;;;;;4288521;33;20131;-67
2022/06/15 02:23:57;;;;;;;0.90;0.45;;;12.50;99.90;;;;;;4294091;33;20088;-68
2022/06/15 02:26:27;;;;;;;0.30;0.30;;;12.40;99.90;;;;;;4304792;33;20460;-67
2022/06/15 02:28:59;;;;;;;0.60;0.60;;;12.40;99.90;;;;;;4301354;33;20177;-67
2022/06/15 02:31:26;;;;;;;0.43;0.43;;;12.40;99.90;;;;;;4304223;33;20084;-67
2022/06/15 02:33:54;;;;;;;0.70;0.70;;;12.50;99.90;;;;;;4301759;33;20081;-67
2022/06/15 02:36:20;;;;;;;0.85;0.85;;;12.70;99.90;;;;;;4292834;33;20108;-67
2022/06/15 02:38:49;;;;;;;0.37;0.37;;;12.70;99.90;;;;;;4303916;33;20088;-67
2022/06/15 02:41:17;;;;;;;0.30;0.30;;;12.60;99.90;;;;;;4292961;33;20512;-67
2022/06/15 02:43:44;;;;;;;0.50;0.50;;;12.50;99.90;;;;;;4304421;33;20079;-67
2022/06/15 02:46:12;;;;;;;0.68;0.68;;;12.40;99.90;;;;;;4304143;33;20068;-67
2022/06/15 02:48:38;;;;;;;0.98;0.68;;;12.50;99.90;;;;;;4302199;33;20092;-67
2022/06/15 02:51:08;;;;;;;0.50;0.50;;;12.50;99.90;;;;;;4291374;33;20137;-67
2022/06/15 02:53:35;;;;;;;0.45;0.45;;;12.40;99.90;;;;;;4289882;33;20422;-67
2022/06/15 02:56:02;;;;;;;1.10;0.73;;;12.40;99.90;;;;;;4303999;33;20454;-66
2022/06/15 02:58:32;;;;;;;0.75;0.50;;;12.40;99.90;;;;;;4304479;33;20076;-67
2022/06/15 03:00:58;;;;;;;0.30;0.30;;;12.40;99.90;;;;;;4302172;33;20092;-67
2022/06/15 03:03:25;;;;;;;0.40;0.40;;;12.30;99.90;;;;;;4301960;33;20508;-67
2022/06/15 03:05:51;;;;;;;0.43;0.43;;;12.20;99.90;;;;;;4304594;33;20092;-67
2022/06/15 03:08:18;;;;;;;0.50;0.50;;;12.30;99.90;;;;;;4303163;33;20491;-67
2022/06/15 03:10:43;;;;;;;1.33;0.62;;;12.30;99.90;;;;;;4302946;33;20091;-67
2022/06/15 03:13:09;;;;;;;1.73;0.93;;;12.30;99.90;;;;;;4303067;33;20077;-67
2022/06/15 03:15:35;;;;;;;0.85;0.85;;;12.30;99.90;;;;;;4304522;33;20532;-66
2022/06/15 03:18:01;;;;;;;0.65;0.65;;;12.30;99.90;;;;;;4302584;33;20617;-66
2022/06/15 03:20:26;;;;;;;0.52;0.52;;;12.20;99.90;;;;;;4302665;33;20610;-66
2022/06/15 03:22:52;;;;;;;0.40;0.40;;;12.30;99.90;;;;;;4283301;33;20068;-65
2022/06/15 03:25:18;;;;;;;1.45;0.98;;;12.30;99.90;;;;;;4303320;33;20130;-66
2022/06/15 03:27:44;;;;;;;0.73;0.70;;;12.30;99.90;;;;;;4305574;33;20105;-66
2022/06/15 03:30:10;;;;;;;0.30;0.30;;;12.30;99.90;;;;;;4302584;33;20126;-66
2022/06/15 03:32:35;;;;;;;24.15;0.77;;;12.30;99.90;;;;;;4304963;33;20080;-66
2022/06/15 03:35:02;;;;;;;0.47;0.45;;;12.20;99.90;;;;;;4305433;33;20398;-66
2022/06/15 03:37:28;;;;;;;1.95;0.65;;;12.30;99.90;;;;;;4305503;33;20069;-66
2022/06/15 03:39:54;;;;;;;0.30;0.30;;;12.40;99.90;;;;;;4303137;33;20111;-66
2022/06/15 03:42:22;;;;;;;1.08;0.90;;;12.40;99.90;;;;;;4303437;33;20447;-66
2022/06/15 03:44:48;;;;;;;0.43;0.43;;;12.40;99.90;;;;;;4303850;33;20079;-66
2022/06/15 03:47:17;;;;;;;0.45;0.45;;;12.50;99.90;;;;;;4301615;33;20438;-67
2022/06/15 03:49:44;;;;;;;0.82;0.55;;;12.50;99.90;;;;;;4302996;33;20556;-66
2022/06/15 03:52:10;;;;;;;0.50;0.50;;;12.60;99.90;;;;;;4280779;33;20096;-66
2022/06/15 03:54:36;;;;;;;0.45;0.45;;;12.50;99.90;;;;;;4303332;33;20076;-66
2022/06/15 03:57:03;;;;;;;0.30;0.30;;;12.50;99.90;;;;;;4302038;33;20534;-66
2022/06/15 03:59:29;;;;;;;0.40;0.40;;;12.50;99.90;;;;;;4294000;33;20080;-66
2022/06/15 04:01:54;;;;;;;0.37;0.37;;;12.60;99.90;;;;;;4301940;33;20419;-66
2022/06/15 04:04:20;;;;;;;0.30;0.30;;;12.80;99.90;;;;;;4303929;33;20072;-66
2022/06/15 04:06:46;;;;;;;0.80;0.47;;;12.80;99.90;;;;;;4304650;33;20079;-68
2022/06/15 04:09:11;;;;;;;0.30;0.30;;;12.90;99.90;;;;;;4300803;33;20088;-67
2022/06/15 04:12:09;;;;;;;0.40;0.40;;;12.90;99.90;;;;;;4303658;33;20079;-67
2022/06/15 04:14:22;;;;;;;1.25;0.95;;;13.00;99.90;;;;;;4301305;33;20506;-68
2022/06/15 04:16:53;;;;;;;0.52;0.37;;;13.10;99.90;;;;;;4302661;33;20077;-68
2022/06/15 04:19:20;;;;;;;0.75;0.75;;;13.20;99.90;;;;;;4303426;33;20084;-67
2022/06/15 04:21:47;;;;;;;1.77;0.40;;;13.30;99.90;;;;;;4271431;33;20104;-67
2022/06/15 04:24:13;;;;;;;0.40;0.40;;;13.40;99.90;;;;;;4246048;33;20104;-66
2022/06/15 04:26:39;;;;;;;0.40;0.37;;;13.40;99.90;;;;;;4265988;33;20454;-68
2022/06/15 04:29:05;;;;;;;0.85;0.62;;;13.50;99.90;;;;;;4249492;33;20604;-65
2022/06/15 04:31:30;;;;;;;0.40;0.40;;;13.50;99.90;;;;;;4299897;33;20100;-65
2022/06/15 04:33:56;;;;;;;0.30;0.30;;;13.60;99.90;;;;;;4299812;33;20120;-65
2022/06/15 04:36:25;;;;;;;0.40;0.40;;;13.70;99.90;;;;;;4301569;33;20083;-66
2022/06/15 04:38:51;;;;;;;0.43;0.43;;;13.70;99.90;;;;;;4299360;33;20465;-67
2022/06/15 04:41:17;;;;;;;0.57;0.57;;;13.80;99.90;;;;;;4299805;33;20429;-66
2022/06/15 04:43:42;;;;;;;0.30;0.30;;;13.80;99.90;;;;;;4301587;33;20848;-66
2022/06/15 04:46:07;;;;;;;0.32;0.32;;;13.90;99.90;;;;;;4302323;33;20088;-66
2022/06/15 04:48:33;;;;;;;0.30;0.30;;;14.00;99.90;;;;;;4300665;33;20096;-66
2022/06/15 04:51:09;;;;;;;0.47;0.47;;;14.10;99.90;;;;;;4291914;33;20146;-66
2022/06/15 04:53:35;;;;;;;0.50;0.50;;;14.10;99.90;;;;;;4242985;33;20103;-66
2022/06/15 04:56:00;;;;;;;0.50;0.50;;;14.20;99.90;;;;;;4302929;33;20621;-67
2022/06/15 04:58:26;;;;;;;0.50;0.50;;;14.30;99.90;;;;;;4301846;33;20410;-66
2022/06/15 05:00:51;;;;;;;0.40;0.40;;;14.40;99.90;;;;;;4292258;33;20096;-66
2022/06/15 05:03:17;;;;;;;1.00;0.70;;;14.40;99.90;;;;;;4269365;33;20088;-66
2022/06/15 05:05:42;;;;;;;1.00;0.50;;;14.50;99.90;;;;;;4257248;33;20486;-66
2022/06/15 05:08:08;;;;;;;0.37;0.37;;;14.60;99.90;;;;;;4261993;33;20124;-66
2022/06/15 05:10:33;;;;;;;0.30;0.30;;;14.70;99.90;;;;;;4252980;33;20234;-66
2022/06/15 05:12:59;;;;;;;0.77;0.75;;;14.70;99.90;;;;;;4279937;33;20087;-66
2022/06/15 05:15:25;;;;;;;0.37;0.37;;;14.80;99.90;;;;;;4285471;33;20120;-66
2022/06/15 05:17:50;;;;;;;0.62;0.47;;;14.90;99.90;;;;;;4256326;33;20520;-66
2022/06/15 05:20:17;;;;;;;0.98;0.85;;;15.00;99.90;;;;;;4195586;33;20447;-66
2022/06/15 05:22:48;;;;;;;0.40;0.40;;;15.00;99.90;;;;;;4204599;33;20167;-66
2022/06/15 05:25:15;;;;;;;0.30;0.30;;;15.10;99.90;;;;;;4198293;33;20076;-66
2022/06/15 05:27:41;;;;;;;0.40;0.40;;;15.20;99.90;;;;;;4279967;33;20213;-67
2022/06/15 05:30:07;;;;;;;0.40;0.40;;;15.20;99.90;;;;;;4220400;33;20149;-66
2022/06/15 05:32:34;;;;;;;1.17;0.70;;;15.30;99.90;;;;;;4211172;33;20307;-66
2022/06/15 05:35:01;;;;;;;0.30;0.30;;;15.50;99.90;;;;;;4211538;33;20975;-67
2022/06/15 05:37:29;;;;;;;1.40;0.60;;;15.70;99.90;;;;;;4244378;33;20505;-66
2022/06/15 05:39:56;;;;;;;0.40;0.40;;;15.80;99.90;;;;;;4249889;33;20205;-67
2022/06/15 05:42:22;;;;;;;1.05;0.70;;;15.90;99.90;;;;;;4277772;33;20080;-66
2022/06/15 05:44:48;;;;;;;0.80;0.73;;;16.00;99.90;;;;;;4284236;33;20932;-67
2022/06/15 05:47:14;;;;;;;0.30;0.30;;;16.10;99.90;;;;;;4281639;33;20115;-67
2022/06/15 05:49:40;;;;;;;0.52;0.52;;;16.20;99.90;;;;;;4263297;33;20622;-67
2022/06/15 05:52:07;;;;;;;0.50;0.50;;;16.30;99.90;;;;;;4275959;33;20084;-67
2022/06/15 05:54:33;;;;;;;0.50;0.40;;;16.50;99.90;;;;;;4280069;33;20315;-66
2022/06/15 05:56:58;;;;;;;0.50;0.50;;;16.60;99.90;;;;;;4290758;33;20612;-67
2022/06/15 05:59:24;;;;;;;0.45;0.45;;;16.70;99.90;;;;;;4264708;33;20450;-67
2022/06/15 06:01:49;;;;;;;0.80;0.70;;;16.70;99.90;;;;;;4260836;33;20597;-66
2022/06/15 06:04:18;;;;;;;0.30;0.30;;;16.80;99.90;;;;;;4259223;33;20168;-66
2022/06/15 06:06:45;;;;;;;0.30;0.30;;;16.90;99.90;;;;;;4284330;33;20088;-66
2022/06/15 06:09:10;;;;;;;0.20;0.20;;;17.00;99.90;;;;;;4277805;33;20092;-66
2022/06/15 06:11:36;;;;;;;0.32;0.32;;;17.00;99.90;;;;;;4283045;33;20104;-66
2022/06/15 06:14:01;;;;;;;0.30;0.30;;;17.10;99.90;;;;;;4284329;33;20158;-66
2022/06/15 06:16:27;;;;;;;0.30;0.30;;;17.20;99.90;;;;;;4289711;33;21093;-66
2022/06/15 06:18:52;;;;;;;0.40;0.40;;;17.20;99.90;;;;;;4270541;33;20157;-66
2022/06/15 06:21:19;;;;;;;1.98;0.55;;;17.30;99.90;;;;;;4278091;33;20097;-66
2022/06/15 06:23:44;;;;;;;23.87;0.90;;;17.30;99.90;;;;;;4283007;33;20063;-66
2022/06/15 06:26:21;;;;;;;0.30;0.30;;;17.40;99.90;;;;;;4290359;33;20096;-66
2022/06/15 06:28:47;;;;;;;0.30;0.30;;;17.50;99.90;;;;;;4276404;33;20203;-66
2022/06/15 06:31:12;;;;;;;0.40;0.40;;;17.70;99.90;;;;;;4267031;33;20080;-66
2022/06/15 06:33:38;;;;;;;0.30;0.30;;;17.80;99.90;;;;;;4253611;33;20379;-66
2022/06/15 06:36:07;;;;;;;0.20;0.20;;;17.90;99.90;;;;;;4269931;33;20107;-67
2022/06/15 06:38:34;;;;;;;0.57;0.50;;;17.90;99.90;;;;;;4281317;33;20073;-67
2022/06/15 06:41:00;;;;;;;0.30;0.30;;;18.00;99.60;;;;;;4276631;33;20091;-67
2022/06/15 06:43:26;;;;;;;2.72;0.57;;;18.00;99.30;;;;;;4277888;33;20104;-67
2022/06/15 06:45:51;;;;;;;0.45;0.45;;;18.00;98.70;;;;;;4282734;33;20748;-67
2022/06/15 06:48:17;;;;;;;1.00;0.62;;;18.00;98.90;;;;;;4274506;33;20096;-67
2022/06/15 06:50:43;;;;;;;0.28;0.28;;;18.10;98.50;;;;;;4270959;33;20151;-67
2022/06/15 06:53:11;;;;;;;0.43;0.37;;;18.10;98.40;;;;;;4279393;33;20068;-67
2022/06/15 06:55:37;;;;;;;0.40;0.40;;;18.10;98.40;;;;;;4290215;33;21879;-68
2022/06/15 06:58:02;;;;;;;0.47;0.47;;;18.20;98.20;;;;;;4283399;33;20155;-67
2022/06/15 07:00:30;;;;;;;0.43;0.43;;;18.20;98.10;;;;;;4264657;33;20301;-67
2022/06/15 07:02:58;;;;;;;0.37;0.37;;;18.20;97.50;;;;;;4264707;33;20186;-67
2022/06/15 07:05:24;;;;;;;0.45;0.45;;;18.20;98.00;;;;;;4269817;33;20084;-68
2022/06/15 07:07:49;;;;;;;0.25;0.25;;;18.30;97.40;;;;;;4288123;33;20092;-67
2022/06/15 07:10:15;;;;;;;0.25;0.25;;;18.20;97.00;;;;;;4282120;33;21488;-67
2022/06/15 07:12:42;;;;;;;0.30;0.30;;;18.40;97.10;;;;;;4282069;33;20177;-67
2022/06/15 07:15:10;;;;;;;1.35;0.52;;;18.40;97.20;;;;;;4287178;33;20753;-68
2022/06/15 07:17:35;;;;;;;0.20;0.20;;;18.50;97.20;;;;;;4280422;33;20141;-68
2022/06/15 07:20:01;;;;;;;0.40;0.40;;;18.50;96.90;;;;;;4259418;33;20974;-68
2022/06/15 07:22:27;;;;;;;0.52;0.52;;;18.50;97.10;;;;;;4276377;33;21471;-67
2022/06/15 07:24:52;;;;;;;0.30;0.30;;;18.60;96.90;;;;;;4284652;33;20363;-67
2022/06/15 07:27:18;;;;;;;0.55;0.40;;;18.80;97.20;;;;;;4276716;33;20176;-68
2022/06/15 07:29:46;;;;;;;0.52;0.52;;;18.80;96.50;;;;;;4263776;33;20695;-68
2022/06/15 07:32:14;;;;;;;0.30;0.30;;;18.90;96.40;;;;;;4267618;33;20100;-69
2022/06/15 07:34:40;;;;;;;0.75;0.35;;;18.90;96.80;;;;;;4256602;33;20246;-68
2022/06/15 07:37:07;;;;;;;0.20;0.20;;;18.90;96.50;;;;;;4268457;33;20168;-68
2022/06/15 07:39:32;;;;;;;0.37;0.37;;;18.90;96.30;;;;;;4270568;33;20121;-67
2022/06/15 07:41:58;;;;;;;0.20;0.20;;;18.90;96.30;;;;;;4272332;33;20549;-69
2022/06/15 07:44:25;;;;;;;0.35;0.35;;;19.00;96.00;;;;;;4278108;33;20096;-68
2022/06/15 07:49:54;;;;;;;0.30;0.30;;;19.00;97.30;;;;;;4273118;33;20210;-68
2022/06/15 07:50:09;;;;;;;0.47;0.47;;;19.10;95.90;;;;;;4240743;33;20291;-69
2022/06/15 07:52:25;;;;;;;0.30;0.30;;;19.30;95.60;;;;;;4274046;33;20087;-68
2022/06/15 07:54:51;;;;;;;0.75;0.60;;;19.40;94.70;;;;;;4265891;33;20462;-68
2022/06/15 07:57:17;;;;;;;0.95;0.75;;;19.50;95.50;;;;;;4255124;33;20088;-68
2022/06/15 07:59:42;;;;;;;0.93;0.40;;;19.70;95.20;;;;;;4240980;33;22023;-68
2022/06/15 08:02:09;;;;;;;0.30;0.30;;;19.70;95.10;;;;;;4255787;33;20096;-68
2022/06/15 08:04:34;;;;;;;9.13;0.98;;;19.90;94.80;;;;;;4244327;33;21971;-68
2022/06/15 08:07:00;;;;;;;0.40;0.40;;;20.20;94.10;;;;;;4276000;33;20177;-68
2022/06/15 08:09:26;;;;;;;1.35;0.77;;;20.30;94.20;;;;;;4275108;33;20759;-68
2022/06/15 08:12:23;;;;;;;0.30;0.30;;;20.60;93.50;;;;;;4274079;33;20087;-68
2022/06/15 08:14:39;;;;;;;0.20;0.20;;;20.70;93.60;;;;;;4274242;33;20096;-68
2022/06/15 08:17:08;;;;;;;0.30;0.30;;;21.00;93.30;;;;;;4286141;33;20137;-69
2022/06/15 08:19:37;;;;;;;0.20;0.20;;;21.10;92.30;;;;;;4276032;33;20151;-68
2022/06/15 08:22:03;;;;;;;1.35;0.47;;;21.30;92.30;;;;;;4274285;33;20654;-66
2022/06/15 08:24:31;;;;;;;3.97;0.52;;;21.20;91.40;;;;;;4276870;33;20129;-68
2022/06/15 08:26:57;;;;;;;0.20;0.20;;;21.20;91.50;;;;;;4280382;33;20639;-68
2022/06/15 08:29:22;;;;;;;0.20;0.20;;;21.20;91.20;;;;;;4271647;33;20153;-66
2022/06/15 08:31:48;;;;;;;0.20;0.20;;;21.30;90.40;;;;;;4274146;33;20188;-68
2022/06/15 08:34:13;;;;;;;0.35;0.35;;;21.30;90.50;;;;;;4256645;33;20091;-68
2022/06/15 08:36:39;;;;;;;0.80;0.30;;;21.10;91.30;;;;;;4259687;33;22268;-68
2022/06/15 08:39:05;;;;;;;0.20;0.20;;;21.30;91.20;;;;;;4267980;33;20119;-68
2022/06/15 08:41:56;;;;;;;0.20;0.20;;;21.50;91.60;;;;;;4261671;33;20497;-68
2022/06/15 08:44:46;;;;;;;0.80;0.50;;;21.80;90.80;;;;;;4257464;33;20161;-68
2022/06/15 08:47:39;;;;;;;0.22;0.22;;;21.90;89.50;;;;;;4264159;33;20165;-69
2022/06/15 08:50:44;;;;;;;0.37;0.37;;;21.80;90.20;;;;;;4260911;33;20100;-68
2022/06/15 08:53:18;;;;;;;0.65;0.65;;;22.00;89.00;;;;;;4256225;33;20176;-68
2022/06/15 08:56:04;;;;;;;0.52;0.52;;;22.00;90.40;;;;;;4265153;33;20109;-68
2022/06/15 08:58:57;;;;;;;1.17;0.73;;;22.00;88.50;;;;;;4263950;33;20158;-68
2022/06/15 09:01:32;;;;;;;0.30;0.30;;;22.00;88.10;;;;;;4233190;33;20357;-68
2022/06/15 09:04:15;;;;;;;0.28;0.28;;;21.80;88.70;;;;;;4229667;33;20320;-68
2022/06/15 09:06:49;;;;;;;0.20;0.20;;;21.90;88.20;;;;;;4264365;33;20087;-66
2022/06/15 09:09:36;;;;;;;0.85;0.75;;;22.00;87.50;;;;;;4259433;33;20132;-68
2022/06/15 09:12:53;;;;;;;0.17;0.17;;;22.10;88.20;;;;;;4250310;33;20092;-68
2022/06/15 09:15:15;;;;;;;0.30;0.30;;;22.20;88.00;;;;;;4253174;33;20108;-69
2022/06/15 09:17:41;;;;;;;4.65;0.40;;;22.30;88.40;;;;;;4250397;33;20134;-68
2022/06/15 09:20:16;;;;;;;0.22;0.22;;;22.50;87.70;;;;;;4257376;33;20637;-68
2022/06/15 09:22:48;;;;;;;0.50;0.50;;;22.60;87.10;;;;;;4270073;33;20283;-68
2022/06/15 09:25:19;;;;;;;0.20;0.20;;;22.70;87.90;;;;;;4270232;33;20358;-68
2022/06/15 09:27:51;;;;;;;0.22;0.22;;;22.80;88.30;;;;;;4272722;33;20111;-68
2022/06/15 09:30:29;;;;;;;0.52;0.52;;;22.90;85.80;;;;;;4261413;33;20106;-65
2022/06/15 09:33:00;;;;;;;0.30;0.30;;;22.80;85.60;;;;;;4260330;33;20894;-65
2022/06/15 09:35:35;;;;;;;0.30;0.30;;;22.90;85.10;;;;;;4258242;33;20100;-68
2022/06/15 09:38:04;;;;;;;0.30;0.30;;;23.00;85.50;;;;;;4276021;33;20136;-68
2022/06/15 09:40:41;;;;;;;1.98;0.88;;;23.20;84.30;;;;;;4267557;33;20123;-68
2022/06/15 09:43:26;;;;;;;1.75;0.73;;;23.20;84.90;;;;;;4272535;33;20766;-68
2022/06/15 09:46:09;;;;;;;1.08;0.52;;;23.10;82.40;;;;;;4263350;33;20677;-68
2022/06/15 09:48:56;;;;;;;0.50;0.50;;;23.00;83.90;;;;;;4268213;33;20087;-68
2022/06/15 09:51:46;;;;;;;0.20;0.20;;;23.10;85.30;;;;;;4271909;33;20114;-68
2022/06/15 09:54:33;;;;;;;0.40;0.40;;;23.40;83.90;;;;;;4271190;33;20128;-68
2022/06/15 09:56:59;;;;;;;0.40;0.40;;;23.40;82.70;;;;;;4279775;33;20439;-68
2022/06/15 09:59:26;;;;;;;0.32;0.32;;;23.50;83.60;;;;;;4274342;33;20088;-68
2022/06/15 10:01:52;;;;;;;0.28;0.28;;;23.60;82.80;;;;;;4270093;33;20270;-66
2022/06/15 10:04:25;;;;;;;1.30;0.88;;;23.70;83.00;;;;;;4258528;33;21704;-66
2022/06/15 10:06:58;;;;;;;0.20;0.20;;;23.90;82.50;;;;;;4284073;33;20260;-68
2022/06/15 10:09:29;;;;;;;2.95;1.20;;;24.10;81.30;;;;;;4280394;33;21695;-66
2022/06/15 10:12:59;;;;;;;4.30;0.95;;;24.10;82.60;;;;;;4273099;33;20758;-66
2022/06/15 10:14:48;;;;;;;0.52;0.35;;;24.20;82.70;;;;;;4256277;33;20092;-67
2022/06/15 10:17:34;;;;;;;0.20;0.20;;;24.40;80.10;;;;;;4255391;33;20258;-67
2022/06/15 10:19:59;;;;;;;0.28;0.20;;;24.40;80.80;;;;;;4267188;33;20524;-68
2022/06/15 10:22:30;;;;;;;0.13;0.13;;;24.50;79.30;;;;;;4270141;33;20423;-67
2022/06/15 10:24:57;;;;;;;0.37;0.35;;;23.90;79.30;;;;;;4255961;33;20088;-68
2022/06/15 10:27:35;;;;;;;0.30;0.30;;;23.80;81.30;;;;;;4273877;33;20103;-67
2022/06/15 10:30:11;;;;;;;0.50;0.50;;;24.20;81.90;;;;;;4270694;33;20119;-68
2022/06/15 10:32:40;;;;;;;0.20;0.20;;;24.80;81.20;;;;;;4274151;33;20355;-68
2022/06/15 10:35:17;;;;;;;3.50;0.65;;;25.10;78.80;;;;;;4257271;33;20317;-68
2022/06/15 10:37:55;;;;;;;0.20;0.20;;;24.60;78.70;;;;;;4289456;33;20092;-68
2022/06/15 10:40:27;;;;;;;0.32;0.32;;;24.80;79.60;;;;;;4278425;33;20159;-68
2022/06/15 10:43:00;;;;;;;0.20;0.20;;;24.70;78.80;;;;;;4282734;33;20538;-66
2022/06/15 10:45:30;;;;;;;0.30;0.25;;;24.90;78.80;;;;;;4275883;33;20337;-66
2022/06/15 10:48:03;;;;;;;0.67;0.20;;;25.10;77.40;;;;;;4271787;33;20091;-66
2022/06/15 10:50:42;;;;;;;0.40;0.40;;;25.10;78.10;;;;;;4275701;33;20656;-67
2022/06/15 10:53:31;;;;;;;2.83;0.55;;;25.30;76.80;;;;;;4262866;33;20112;-68
2022/06/15 11:02:16;;;;;;;0.20;0.20;;;25.80;76.00;;;;;;4268463;33;20498;-68
2022/06/15 11:04:34;;;;;;;0.32;0.32;;;26.20;75.20;;;;;;4263839;33;20491;-68
2022/06/15 11:07:11;;;;;;;0.15;0.15;;;26.20;75.10;;;;;;4278135;33;20356;-68
2022/06/15 11:09:41;;;;;;;0.20;0.20;;;26.40;75.20;;;;;;4276756;33;20072;-68
2022/06/15 11:12:22;;;;;;;;;;;27.00;74.80;;;;;;4275431;33;20072;-68
2022/06/15 11:14:52;;;;;;;0.62;0.50;;;26.90;72.60;;;;;;4277250;33;20470;-67
2022/06/15 11:18:09;;;;;;;0.20;0.20;;;27.20;72.20;;;;;;4265260;33;20611;-68
2022/06/15 11:20:45;;;;;;;0.13;0.13;;;27.00;72.30;;;;;;4278164;33;20409;-68
2022/06/15 11:23:52;;;;;;;0.10;0.10;;;27.20;72.80;;;;;;4265776;33;20763;-68
2022/06/15 11:27:04;;;;;;;0.15;0.15;;;27.20;70.90;;;;;;4269236;33;20124;-68
2022/06/15 11:29:37;;;;;;;0.60;0.40;;;27.30;72.10;;;;;;4263817;33;20100;-68
2022/06/15 11:32:13;;;;;;;0.20;0.20;;;27.60;69.50;;;;;;4272202;33;20091;-68
2022/06/15 11:34:49;;;;;;;0.03;0.03;;;27.70;70.40;;;;;;4266125;33;20187;-68
2022/06/15 11:37:24;;;;;;;3.83;0.77;;;28.10;71.00;;;;;;4284268;33;20148;-68
2022/06/15 11:39:57;;;;;;;0.17;0.17;;;28.50;68.90;;;;;;4270907;33;20111;-68
2022/06/15 11:42:24;;;;;;;0.32;0.20;;;28.40;67.80;;;;;;4261583;33;20179;-68
2022/06/15 11:44:51;;;;;;;0.10;0.10;;;28.50;67.20;;;;;;4254919;33;20278;-68
2022/06/15 11:47:42;;;;;;;0.35;0.35;;;28.70;68.00;;;;;;4259759;33;20812;-67
2022/06/15 11:50:34;;;;;;;0.10;0.10;;;29.00;65.40;;;;;;4268103;33;20506;-67
2022/06/15 11:53:21;;;;;;;2.65;1.12;;;28.80;66.00;;;;;;4267425;33;20183;-66
2022/06/15 11:56:03;;;;;;;1.27;0.43;;;29.10;64.90;;;;;;4279141;33;20099;-66
2022/06/15 11:58:35;;;;;;;0.10;0.10;;;29.00;63.80;;;;;;4275759;33;20318;-66
2022/06/15 12:01:22;;;;;;;0.25;0.25;;;29.20;63.60;;;;;;4273401;33;20497;-66
2022/06/15 12:04:27;;;;;;;0.05;0.05;;;29.00;64.00;;;;;;4259161;33;20307;-66
2022/06/15 12:07:03;;;;;;;0.20;0.20;;;28.90;65.00;;;;;;4269720;33;22560;-68
2022/06/15 12:09:56;;;;;;;0.10;0.08;;;29.30;63.50;;;;;;4281979;33;20533;-67
2022/06/15 12:12:45;;;;;;;1.55;0.32;;;29.70;62.30;;;;;;4273705;33;22362;-67
2022/06/15 12:15:20;;;;;;;0.10;0.10;;;30.40;61.50;;;;;;4265986;33;20276;-67
2022/06/15 12:17:51;;;;;;;0.95;0.35;;;31.00;60.80;;;;;;4264919;33;20378;-67
2022/06/15 12:20:43;;;;;;;0.37;0.37;;;31.00;59.80;;;;;;4268841;33;20176;-67
2022/06/15 12:23:20;;;;;;;0.20;0.20;;;31.10;59.30;;;;;;4274843;33;20092;-67
2022/06/15 12:26:10;;;;;;;0.22;0.22;;;31.50;57.80;;;;;;4285293;33;20117;-67
2022/06/15 12:28:50;;;;;;;0.25;0.25;;;31.70;57.40;;;;;;4277848;33;20344;-69
2022/06/15 12:31:42;;;;;;;0.30;0.30;;;31.60;56.80;;;;;;4272656;33;20147;-66
2022/06/15 12:34:14;;;;;;;0.40;0.40;;;31.20;57.70;;;;;;4255210;33;20217;-67
2022/06/15 12:36:49;;;;;;;0.20;0.20;;;31.40;58.60;;;;;;4272772;33;20096;-68
2022/06/15 12:39:43;;;;;;;0.17;0.17;;;31.30;58.00;;;;;;4287269;33;20104;-67
2022/06/15 12:42:14;;;;;;;0.45;0.45;;;30.80;57.60;;;;;;4279148;33;20152;-68
2022/06/15 12:44:53;;;;;;;0.32;0.20;;;30.20;58.40;;;;;;4272199;33;20224;-67
2022/06/15 12:47:21;;;;;;;0.10;0.10;;;30.70;57.80;;;;;;4268203;33;20115;-68
2022/06/15 12:50:18;;;;;;;0.55;0.55;;;31.00;57.10;;;;;;4281794;33;20084;-67
2022/06/15 12:53:00;;;;;;;0.20;0.20;;;31.40;57.30;;;;;;4282745;33;20164;-67
2022/06/15 12:55:37;;;;;;;0.47;0.40;;;31.40;57.20;;;;;;4282701;33;20076;-67
2022/06/15 12:58:10;;;;;;;0.10;0.10;;;31.70;56.50;;;;;;4282552;33;20268;-67
2022/06/15 13:00:46;;;;;;;0.10;0.10;;;31.80;55.70;;;;;;4276466;33;20108;-67
2022/06/15 13:03:38;;;;;;;0.47;0.47;;;31.70;56.50;;;;;;4270739;33;20651;-67
2022/06/15 13:06:23;;;;;;;0.50;0.40;;;31.60;56.70;;;;;;4282856;33;20068;-67
2022/06/15 13:09:18;;;;;;;0.20;0.20;;;32.20;54.70;;;;;;4292764;33;20544;-67
2022/06/15 13:11:51;;;;;;;0.43;0.20;;;32.60;54.60;;;;;;4287775;33;20080;-67
2022/06/15 13:14:20;;;;;;;0.52;0.37;;;32.50;54.70;;;;;;4285253;33;20071;-67
2022/06/15 13:16:59;;;;;;;0.83;0.60;;;32.70;53.80;;;;;;4272216;33;20075;-67
2022/06/15 13:19:45;;;;;;;2.10;0.50;;;33.60;52.90;;;;;;4282116;33;20527;-68